FACT

Cape Town International Airport

Airport
ICAO code
FACT
IATA Code
CPT
Summary
ICAO Region
AFI
ICAO Territory
Location

, Western Cape

Serving
Cape Town
Elevation
151 ft
Coordinates
33° 57' 53" S , 18° 36' 6" E
Metar
Observation
FACT 080800Z 20007KT 150V220 CAVOK 26/12 Q1013 NOSIG
Station
Cape Town, Cape Town International Airport
Date/Time
2022-12-08 08:00:00
Wind direction
200°
Wind speed
07 kts
Lowest cloud amount
clouds and visibility OK
Temperature
26°C
Dew point
12°C
Humidity
41%
QNH
1013 hPa
Weather condition
n/a

Runways

Designator Length Width Surface Rops
16/34 1701 46 ASP Yes/Yes
1/19 3201 61 ASP Yes/Yes

Airport map

Aerial View

SKYbrary Partners:

Safety knowledge contributed by: